createdAt,value
2022-10-01T00:02:11.358Z,10.85
2022-10-01T00:04:39.749Z,11.73
2022-10-01T00:07:10.890Z,10.98
2022-10-01T00:09:38.869Z,11.93
2022-10-01T00:12:06.579Z,13.60
2022-10-01T00:14:33.993Z,12.13
2022-10-01T00:17:01.486Z,11.80
2022-10-01T00:19:29.231Z,12.27
2022-10-01T00:21:56.655Z,11.02
2022-10-01T00:24:26.355Z,10.80
2022-10-01T00:26:54.128Z,10.57
2022-10-01T00:29:21.558Z,10.45
2022-10-01T00:31:49.363Z,10.20
2022-10-01T00:34:19.473Z,9.57
2022-10-01T00:36:47.219Z,9.07
2022-10-01T00:39:14.898Z,10.10
2022-10-01T00:41:42.825Z,10.35
2022-10-01T00:44:28.975Z,9.88
2022-10-01T00:46:59.305Z,8.68
2022-10-01T00:49:29.533Z,8.60
2022-10-01T00:51:59.012Z,8.63
2022-10-01T00:54:38.580Z,8.52
2022-10-01T00:59:34.953Z,6.20
2022-10-01T01:02:02.385Z,7.05
2022-10-01T01:04:30.020Z,7.90
2022-10-01T01:06:58.686Z,6.85
2022-10-01T01:09:30.124Z,7.80
2022-10-01T01:12:18.729Z,6.40
2022-10-01T01:14:46.082Z,7.80
2022-10-01T01:17:17.239Z,7.85
2022-10-01T01:20:07.670Z,6.53
2022-10-01T01:22:37.414Z,7.45
2022-10-01T01:25:13.713Z,7.07
2022-10-01T01:28:02.096Z,7.30
2022-10-01T01:30:32.723Z,7.57
2022-10-01T01:33:04.886Z,8.02
2022-10-01T01:35:32.521Z,7.60
2022-10-01T01:38:03.511Z,7.75
2022-10-01T01:40:34.007Z,8.77
2022-10-01T01:43:05.985Z,8.63
2022-10-01T01:45:44.329Z,7.80
2022-10-01T01:48:14.840Z,8.68
2022-10-01T01:50:54.260Z,8.20
2022-10-01T01:53:21.826Z,8.32
2022-10-01T01:55:49.612Z,8.10
2022-10-01T01:58:19.017Z,7.40
2022-10-01T02:00:52.451Z,7.30
2022-10-01T02:03:22.228Z,6.10
2022-10-01T02:05:58.147Z,6.63
2022-10-01T02:08:34.198Z,6.75
2022-10-01T02:11:23.966Z,6.15
2022-10-01T02:14:14.745Z,6.15
2022-10-01T02:16:42.344Z,5.28
2022-10-01T02:19:18.519Z,4.75
2022-10-01T02:22:07.442Z,5.45
2022-10-01T02:24:41.268Z,4.55
2022-10-01T02:27:19.074Z,5.07
2022-10-01T02:29:46.677Z,5.60
2022-10-01T02:32:17.769Z,5.43
2022-10-01T02:34:49.843Z,5.90
2022-10-01T02:37:18.527Z,6.03
2022-10-01T02:39:46.710Z,5.60
2022-10-01T02:42:15.571Z,6.25
2022-10-01T02:44:45.183Z,6.20
2022-10-01T02:47:21.690Z,6.38
2022-10-01T02:49:50.268Z,6.88
2022-10-01T02:52:22.639Z,6.45
2022-10-01T02:54:52.588Z,5.85
2022-10-01T02:57:29.833Z,7.00
2022-10-01T02:59:59.859Z,7.53
2022-10-01T03:02:28.290Z,6.05
2022-10-01T03:04:59.023Z,8.45
2022-10-01T03:07:29.467Z,8.35
2022-10-01T03:09:57.303Z,8.77
2022-10-01T03:12:25.087Z,8.60
2022-10-01T03:14:53.784Z,8.85
2022-10-01T03:17:21.334Z,9.68
2022-10-01T03:19:51.468Z,8.43
2022-10-01T03:22:25.089Z,9.50
2022-10-01T03:24:53.043Z,9.30
2022-10-01T03:27:21.319Z,10.13
2022-10-01T03:29:51.666Z,9.48
2022-10-01T03:32:19.371Z,11.35
2022-10-01T03:34:47.127Z,9.98
2022-10-01T03:37:16.448Z,11.68
2022-10-01T03:39:43.844Z,12.02
2022-10-01T03:42:11.338Z,11.75
2022-10-01T03:44:38.846Z,12.13
2022-10-01T03:47:06.297Z,11.65
2022-10-01T03:49:34.738Z,12.43
2022-10-01T03:52:02.738Z,11.80
2022-10-01T03:54:31.400Z,12.48
2022-10-01T03:57:01.581Z,12.82
2022-10-01T03:59:29.616Z,13.82
2022-10-01T04:01:57.039Z,13.95
2022-10-01T04:04:24.485Z,14.32
2022-10-01T04:06:52.074Z,14.93
2022-10-01T04:09:19.428Z,14.95
2022-10-01T04:11:49.951Z,15.02
2022-10-01T04:14:21.687Z,14.73
2022-10-01T04:16:52.566Z,15.77
2022-10-01T04:19:20.514Z,15.02
2022-10-01T04:21:50.551Z,14.73
2022-10-01T04:24:17.902Z,15.13
2022-10-01T04:26:45.243Z,14.05
2022-10-01T04:29:12.639Z,13.95
2022-10-01T04:31:43.102Z,13.48
2022-10-01T04:34:10.634Z,14.25
2022-10-01T04:36:38.090Z,13.60
2022-10-01T04:39:05.955Z,13.57
2022-10-01T04:41:36.713Z,13.32
2022-10-01T04:44:04.599Z,13.65
2022-10-01T04:46:34.309Z,12.80
2022-10-01T04:49:01.871Z,11.35
2022-10-01T04:51:29.377Z,11.30
2022-10-01T04:53:56.785Z,11.02
2022-10-01T04:56:24.139Z,11.75
2022-10-01T04:58:51.806Z,11.25
2022-10-01T05:01:19.326Z,9.20
2022-10-01T05:03:47.462Z,9.90
2022-10-01T05:06:14.857Z,10.13
2022-10-01T05:08:42.145Z,10.00
2022-10-01T05:11:09.633Z,9.77
2022-10-01T05:13:36.984Z,10.13
2022-10-01T05:16:04.401Z,9.68
2022-10-01T05:18:32.483Z,10.63
2022-10-01T05:21:10.139Z,10.90
2022-10-01T05:23:37.460Z,10.23
2022-10-01T05:26:05.861Z,9.77
2022-10-01T05:28:35.751Z,9.05
2022-10-01T05:31:04.102Z,9.25
2022-10-01T05:33:34.516Z,8.68
2022-10-01T05:36:02.036Z,8.93
2022-10-01T05:38:29.783Z,8.73
2022-10-01T05:40:57.157Z,9.02
2022-10-01T05:43:27.084Z,8.65
2022-10-01T05:45:54.796Z,8.95
2022-10-01T05:48:24.846Z,7.10
2022-10-01T05:50:54.182Z,7.53
2022-10-01T05:53:23.718Z,7.95
2022-10-01T05:58:18.548Z,7.75
2022-10-01T06:00:45.912Z,7.60
2022-10-01T06:03:16.277Z,6.88
2022-10-01T06:05:44.903Z,6.47
2022-10-01T06:08:12.608Z,7.43
2022-10-01T06:10:40.366Z,7.68
2022-10-01T06:13:13.477Z,7.75
2022-10-01T06:15:40.857Z,7.57
2022-10-01T06:18:09.463Z,7.45
2022-10-01T06:20:39.775Z,7.30
2022-10-01T06:23:11.360Z,7.10
2022-10-01T06:25:42.830Z,6.60
2022-10-01T06:28:12.011Z,6.95
2022-10-01T06:30:40.750Z,7.20
2022-10-01T06:33:09.980Z,7.60
2022-10-01T06:35:40.666Z,9.00
2022-10-01T06:38:09.567Z,9.02
2022-10-01T06:40:37.244Z,8.80
2022-10-01T06:43:07.594Z,8.77
2022-10-01T06:45:38.212Z,7.53
2022-10-01T06:48:05.856Z,8.77
2022-10-01T06:50:34.349Z,8.45
2022-10-01T06:53:02.158Z,8.23
2022-10-01T06:55:31.139Z,7.55
2022-10-01T06:58:06.006Z,7.82
2022-10-01T07:00:35.009Z,6.85
2022-10-01T07:03:03.252Z,6.15
2022-10-01T07:05:30.667Z,6.13
2022-10-01T07:07:57.982Z,7.10
2022-10-01T07:10:25.546Z,5.47
2022-10-01T07:12:52.965Z,6.38
2022-10-01T07:15:22.714Z,5.65
2022-10-01T07:17:51.051Z,5.88
2022-10-01T07:20:19.343Z,7.28
2022-10-01T07:22:47.494Z,6.22
2022-10-01T07:25:14.987Z,5.93
2022-10-01T07:27:42.854Z,7.85
2022-10-01T07:30:12.875Z,6.85
2022-10-01T07:32:42.743Z,6.82
2022-10-01T07:35:10.587Z,8.52
2022-10-01T07:37:38.020Z,6.85
2022-10-01T07:40:07.658Z,7.03
2022-10-01T07:42:35.726Z,7.00
2022-10-01T07:45:06.697Z,6.82
2022-10-01T07:47:34.204Z,6.95
2022-10-01T07:50:01.727Z,8.77
2022-10-01T07:52:29.063Z,6.60
2022-10-01T07:54:56.397Z,8.05
2022-10-01T07:57:23.740Z,6.43
2022-10-01T07:59:55.689Z,5.93
2022-10-01T08:02:23.688Z,7.80
2022-10-01T08:05:09.438Z,6.93
2022-10-01T08:07:36.980Z,6.53
2022-10-01T08:10:04.690Z,7.10
2022-10-01T08:12:32.368Z,6.03
2022-10-01T08:14:59.819Z,7.53
2022-10-01T08:17:29.497Z,8.50
2022-10-01T08:19:57.203Z,8.15
2022-10-01T08:22:24.587Z,7.40
2022-10-01T08:24:52.202Z,8.20
2022-10-01T08:27:19.596Z,7.35
2022-10-01T08:29:48.434Z,7.20
2022-10-01T08:32:18.806Z,7.78
2022-10-01T08:34:46.872Z,7.55
2022-10-01T08:37:16.973Z,7.43
2022-10-01T08:39:44.537Z,7.75
2022-10-01T08:42:15.719Z,8.25
2022-10-01T08:44:44.904Z,8.63
2022-10-01T08:47:18.973Z,7.45
2022-10-01T08:49:49.606Z,7.05
2022-10-01T08:52:24.371Z,7.38
2022-10-01T08:55:12.307Z,7.53
2022-10-01T08:57:49.866Z,6.30
2022-10-01T09:00:18.212Z,6.45
2022-10-01T09:02:47.110Z,5.78
2022-10-01T09:05:21.074Z,5.78
2022-10-01T09:07:57.771Z,5.47
2022-10-01T09:10:28.508Z,5.85
2022-10-01T09:13:04.510Z,6.18
2022-10-01T09:16:04.100Z,6.38
2022-10-01T09:18:37.764Z,5.80
2022-10-01T09:21:11.566Z,6.47
2022-10-01T09:23:45.504Z,6.53
2022-10-01T09:26:13.485Z,5.13
2022-10-01T09:28:41.985Z,5.05
2022-10-01T09:31:33.505Z,4.47
2022-10-01T09:34:11.998Z,5.85
2022-10-01T09:36:48.484Z,4.40
2022-10-01T09:39:22.104Z,4.25
2022-10-01T09:41:49.636Z,4.55
2022-10-01T09:44:19.001Z,5.10
2022-10-01T09:46:47.538Z,4.00
2022-10-01T09:49:24.220Z,2.35
2022-10-01T09:51:55.405Z,3.22
2022-10-01T09:54:22.756Z,3.08
2022-10-01T09:56:55.107Z,2.50
2022-10-01T09:59:24.978Z,2.85
2022-10-01T10:01:59.287Z,3.72
2022-10-01T10:04:27.152Z,3.38
2022-10-01T10:07:02.381Z,2.33
2022-10-01T10:09:33.993Z,2.15
2022-10-01T10:12:02.109Z,2.35
2022-10-01T10:14:42.689Z,2.15
2022-10-01T10:17:15.323Z,3.03
2022-10-01T10:19:49.417Z,2.35
2022-10-01T10:22:25.098Z,2.92
2022-10-01T10:24:59.033Z,2.22
2022-10-01T10:27:28.160Z,1.88
2022-10-01T10:30:02.970Z,2.83
2022-10-01T10:32:30.749Z,1.63
2022-10-01T10:35:03.304Z,2.53
2022-10-01T10:37:32.837Z,2.78
2022-10-01T10:40:00.274Z,2.22
2022-10-01T10:42:30.285Z,2.42
2022-10-01T10:45:01.556Z,1.95
2022-10-01T10:47:31.558Z,2.25
2022-10-01T10:50:00.379Z,2.42
2022-10-01T10:52:33.869Z,2.22
2022-10-01T10:55:02.602Z,3.05
2022-10-01T10:57:31.051Z,2.58
2022-10-01T10:59:58.508Z,2.67
2022-10-01T11:02:27.066Z,2.58
2022-10-01T11:04:56.535Z,1.70
2022-10-01T11:07:27.537Z,2.90
2022-10-01T11:10:13.840Z,3.15
2022-10-01T11:12:57.553Z,2.00
2022-10-01T11:15:44.373Z,2.70
2022-10-01T11:18:14.827Z,1.75
2022-10-01T11:20:50.746Z,2.85
2022-10-01T11:23:30.092Z,2.05
2022-10-01T11:26:03.726Z,2.33
2022-10-01T11:28:37.620Z,2.92
2022-10-01T11:31:22.642Z,1.90
2022-10-01T11:34:13.303Z,1.90
2022-10-01T11:36:57.271Z,2.38
2022-10-01T11:39:25.771Z,2.53
2022-10-01T11:41:57.370Z,2.30
2022-10-01T11:44:33.500Z,2.90
2022-10-01T11:47:04.750Z,2.90
2022-10-01T11:49:42.699Z,3.65
2022-10-01T11:52:17.627Z,2.65
2022-10-01T11:55:30.451Z,1.80
2022-10-01T11:58:37.255Z,2.55
2022-10-01T12:01:10.802Z,1.80
2022-10-01T12:03:45.144Z,3.40
2022-10-01T12:06:14.939Z,3.72
2022-10-01T12:08:48.235Z,2.33
2022-10-01T12:11:19.048Z,2.42
2022-10-01T12:13:55.349Z,2.00
2022-10-01T12:16:31.867Z,1.67
2022-10-01T12:19:03.481Z,2.55
2022-10-01T12:21:35.694Z,1.67
2022-10-01T12:24:06.068Z,2.28
2022-10-01T12:26:39.648Z,1.73
2022-10-01T12:29:14.471Z,1.40
2022-10-01T12:31:42.074Z,1.77
2022-10-01T12:34:17.938Z,2.65
2022-10-01T12:36:49.340Z,2.05
2022-10-01T12:39:25.145Z,2.97
2022-10-01T12:42:11.351Z,3.30
2022-10-01T12:44:52.444Z,2.30
2022-10-01T12:47:38.961Z,2.08
2022-10-01T12:50:12.856Z,2.03
2022-10-01T12:52:46.570Z,2.50
2022-10-01T12:55:17.863Z,2.28
2022-10-01T12:57:53.300Z,2.67
2022-10-01T13:00:22.285Z,2.60
2022-10-01T13:02:56.108Z,2.35
2022-10-01T13:05:35.604Z,1.88
2022-10-01T13:08:02.976Z,1.83
2022-10-01T13:10:36.407Z,2.85
2022-10-01T13:13:42.972Z,2.00
2022-10-01T13:16:16.851Z,2.17
2022-10-01T13:18:50.854Z,2.00
2022-10-01T13:21:33.518Z,2.40
2022-10-01T13:24:17.122Z,1.85
2022-10-01T13:27:03.867Z,1.95
2022-10-01T13:29:58.664Z,2.80
2022-10-01T13:32:26.020Z,2.00
2022-10-01T13:34:56.745Z,2.45
2022-10-01T13:37:41.064Z,3.20
2022-10-01T13:40:29.043Z,2.00
2022-10-01T13:43:19.359Z,1.88
2022-10-01T13:45:51.452Z,4.55
2022-10-01T13:48:20.080Z,1.63
2022-10-01T13:51:05.168Z,2.03
2022-10-01T13:53:34.808Z,2.25
2022-10-01T13:56:06.938Z,2.05
2022-10-01T13:58:39.053Z,2.78
2022-10-01T14:01:29.571Z,2.10
2022-10-01T14:04:00.104Z,2.28
2022-10-01T14:06:37.107Z,2.63
2022-10-01T14:09:16.717Z,2.05
2022-10-01T14:12:04.665Z,3.20
2022-10-01T14:14:55.285Z,2.58
2022-10-01T14:17:25.171Z,2.65
2022-10-01T14:19:53.081Z,2.30
2022-10-01T14:22:41.838Z,2.70
2022-10-01T14:25:37.737Z,2.10
2022-10-01T14:28:20.415Z,2.55
2022-10-01T14:30:50.947Z,2.13
2022-10-01T14:33:51.260Z,2.40
2022-10-01T14:36:19.043Z,1.98
2022-10-01T14:38:46.618Z,3.45
2022-10-01T14:41:19.086Z,1.80
2022-10-01T14:43:47.036Z,2.67
2022-10-01T14:46:16.797Z,1.55
2022-10-01T14:48:46.824Z,1.58
2022-10-01T14:51:31.247Z,1.85
2022-10-01T14:54:01.691Z,1.45
2022-10-01T14:56:32.819Z,2.65
2022-10-01T14:59:03.355Z,1.85
2022-10-01T15:01:31.326Z,1.48
2022-10-01T15:04:03.975Z,2.42
2022-10-01T15:06:32.790Z,1.63
2022-10-01T15:09:11.223Z,1.50
2022-10-01T15:11:44.635Z,1.92
2022-10-01T15:14:16.397Z,2.08
2022-10-01T15:16:46.874Z,1.70
2022-10-01T15:19:19.956Z,1.92
2022-10-01T15:21:56.688Z,1.90
2022-10-01T15:24:34.037Z,2.42
2022-10-01T15:27:01.919Z,1.80
2022-10-01T15:29:29.510Z,2.78
2022-10-01T15:32:02.749Z,2.42
2022-10-01T15:34:30.622Z,2.05
2022-10-01T15:37:01.656Z,2.03
2022-10-01T15:39:36.652Z,1.65
2022-10-01T15:42:09.852Z,2.50
2022-10-01T15:44:40.379Z,2.83
2022-10-01T15:47:27.237Z,2.40
2022-10-01T15:50:10.954Z,2.35
2022-10-01T15:52:54.395Z,2.65
2022-10-01T15:55:28.216Z,2.75
2022-10-01T15:58:04.519Z,2.92
2022-10-01T16:00:40.641Z,2.50
2022-10-01T16:03:18.183Z,4.65
2022-10-01T16:05:47.022Z,3.67
2022-10-01T16:08:21.900Z,3.08
2022-10-01T16:11:08.276Z,3.88
2022-10-01T16:13:39.420Z,2.75
2022-10-01T16:16:27.664Z,3.10
2022-10-01T16:19:16.894Z,4.80
2022-10-01T16:22:11.058Z,5.45
2022-10-01T16:24:48.311Z,3.83
2022-10-01T16:27:20.756Z,5.72
2022-10-01T16:29:53.539Z,3.65
2022-10-01T16:32:20.998Z,3.90
2022-10-01T16:34:48.388Z,3.53
2022-10-01T16:37:16.241Z,3.63
2022-10-01T16:39:49.516Z,4.40
2022-10-01T16:42:24.806Z,3.17
2022-10-01T16:44:55.463Z,3.72
2022-10-01T16:47:26.337Z,4.70
2022-10-01T16:49:53.807Z,4.32
2022-10-01T16:52:41.476Z,5.15
2022-10-01T16:55:20.529Z,5.30
2022-10-01T16:57:48.171Z,3.35
2022-10-01T17:00:16.662Z,4.07
2022-10-01T17:02:44.216Z,2.40
2022-10-01T17:05:19.843Z,3.63
2022-10-01T17:07:47.488Z,3.97
2022-10-01T17:10:15.507Z,2.75
2022-10-01T17:12:43.685Z,3.15
2022-10-01T17:15:15.852Z,3.88
2022-10-01T17:17:43.741Z,3.60
2022-10-01T17:20:11.668Z,3.33
2022-10-01T17:22:39.578Z,3.15
2022-10-01T17:25:07.968Z,3.15
2022-10-01T17:27:35.672Z,3.55
2022-10-01T17:30:03.644Z,3.97
2022-10-01T17:32:34.079Z,5.03
2022-10-01T17:35:01.978Z,3.63
2022-10-01T17:37:32.128Z,3.30
2022-10-01T17:39:59.931Z,3.40
2022-10-01T17:42:27.466Z,4.18
2022-10-01T17:44:57.617Z,3.00
2022-10-01T17:47:26.371Z,3.75
2022-10-01T17:49:53.913Z,4.90
2022-10-01T17:52:21.506Z,3.50
2022-10-01T17:54:57.901Z,4.88
2022-10-01T17:57:30.512Z,3.13
2022-10-01T18:00:00.272Z,3.05
2022-10-01T18:02:41.678Z,3.67
2022-10-01T18:05:17.171Z,3.80
2022-10-01T18:07:49.041Z,4.07
2022-10-01T18:10:16.645Z,3.38
2022-10-01T18:15:25.513Z,3.67
2022-10-01T18:18:38.136Z,3.10
2022-10-01T18:20:47.172Z,3.53
2022-10-01T18:23:23.976Z,3.50
2022-10-01T18:25:51.463Z,2.92
2022-10-01T18:28:19.233Z,3.85
2022-10-01T18:30:50.327Z,6.20
2022-10-01T18:33:17.936Z,4.70
2022-10-01T18:35:45.564Z,4.80
2022-10-01T18:38:24.515Z,3.42
2022-10-01T18:40:58.150Z,4.18
2022-10-01T18:43:33.591Z,3.63
2022-10-01T18:46:16.477Z,3.70
2022-10-01T18:49:13.225Z,3.13
2022-10-01T18:51:55.825Z,4.32
2022-10-01T18:54:29.313Z,4.25
2022-10-01T18:57:23.373Z,4.53
2022-10-01T18:59:50.778Z,4.05
2022-10-01T19:02:22.806Z,3.60
2022-10-01T19:05:08.587Z,3.65
2022-10-01T19:07:43.567Z,4.10
2022-10-01T19:10:32.051Z,3.78
2022-10-01T19:13:26.065Z,3.85
2022-10-01T19:16:12.550Z,4.15
2022-10-01T19:19:02.978Z,4.32
2022-10-01T19:21:45.227Z,5.68
2022-10-01T19:24:18.109Z,3.97
2022-10-01T19:26:48.273Z,3.25
2022-10-01T19:29:24.056Z,4.07
2022-10-01T19:31:55.519Z,3.75
2022-10-01T19:34:39.897Z,4.38
2022-10-01T19:37:11.623Z,3.90
2022-10-01T19:39:39.975Z,2.83
2022-10-01T19:42:27.026Z,3.45
2022-10-01T19:45:17.759Z,3.42
2022-10-01T19:47:51.222Z,3.40
2022-10-01T19:50:43.680Z,4.15
2022-10-01T19:53:31.520Z,13.05
2022-10-01T19:56:03.903Z,8.23
2022-10-01T19:58:32.825Z,3.50
2022-10-01T20:01:01.420Z,4.88
2022-10-01T20:03:34.833Z,3.63
2022-10-01T20:06:37.967Z,4.75
2022-10-01T20:09:27.048Z,3.97
2022-10-01T20:12:06.291Z,4.70
2022-10-01T20:15:04.463Z,5.38
2022-10-01T20:17:34.881Z,6.10
2022-10-01T20:20:06.037Z,4.07
2022-10-01T20:22:36.339Z,3.95
2022-10-01T20:25:08.801Z,4.30
2022-10-01T20:27:38.942Z,4.43
2022-10-01T20:30:12.012Z,3.97
2022-10-01T20:32:53.707Z,7.35
2022-10-01T20:35:36.738Z,5.05
2022-10-01T20:38:08.057Z,4.97
2022-10-01T20:40:40.158Z,4.45
2022-10-01T20:43:18.696Z,5.10
2022-10-01T20:45:48.225Z,4.43
2022-10-01T20:48:20.956Z,4.10
2022-10-01T20:50:50.994Z,5.13
2022-10-01T20:53:38.911Z,5.03
2022-10-01T20:56:13.082Z,8.55
2022-10-01T20:58:44.622Z,5.43
2022-10-01T21:01:17.908Z,5.90
2022-10-01T21:03:47.293Z,4.15
2022-10-01T21:06:17.612Z,3.85
2022-10-01T21:08:47.840Z,5.53
2022-10-01T21:11:20.324Z,4.97
2022-10-01T21:13:59.913Z,7.72
2022-10-01T21:19:27.271Z,4.25
2022-10-01T21:22:06.476Z,5.10
2022-10-01T21:24:52.536Z,4.13
2022-10-01T21:27:58.811Z,4.95
2022-10-01T21:30:28.836Z,3.90
2022-10-01T21:33:02.614Z,4.82
2022-10-01T21:35:49.361Z,6.10
2022-10-01T21:38:35.681Z,5.03
2022-10-01T21:41:21.286Z,6.13
2022-10-01T21:43:56.654Z,5.97
2022-10-01T21:46:27.440Z,5.68
2022-10-01T21:48:57.055Z,5.13
2022-10-01T21:53:52.663Z,5.90
2022-10-01T21:56:37.330Z,5.68
2022-10-01T21:59:07.215Z,6.20
2022-10-01T22:04:05.240Z,5.80
2022-10-01T22:06:36.855Z,5.95
2022-10-01T22:09:16.258Z,5.30
2022-10-01T22:11:52.920Z,5.68
2022-10-01T22:14:20.959Z,6.60
2022-10-01T22:16:59.410Z,5.65
2022-10-01T22:19:29.230Z,5.45
2022-10-01T22:22:05.518Z,6.10
2022-10-01T22:24:37.154Z,5.72
2022-10-01T22:27:14.501Z,5.47
2022-10-01T22:29:43.271Z,5.30
2022-10-01T22:32:12.880Z,5.10
2022-10-01T22:37:27.687Z,4.95
2022-10-01T22:40:08.690Z,4.18
2022-10-01T22:42:39.090Z,5.57
2022-10-01T22:45:20.438Z,4.32
2022-10-01T22:48:06.749Z,7.13
2022-10-01T22:50:40.031Z,4.50
2022-10-01T22:53:07.924Z,4.43
2022-10-01T22:55:35.235Z,4.18
2022-10-01T22:58:22.216Z,3.88
2022-10-01T23:01:00.622Z,3.65
2022-10-01T23:03:46.911Z,2.92
2022-10-01T23:06:27.050Z,2.40
2022-10-01T23:09:00.023Z,2.55
2022-10-01T23:11:32.057Z,3.47
2022-10-01T23:13:59.416Z,2.83
2022-10-01T23:16:33.190Z,1.77
2022-10-01T23:19:21.820Z,2.38
2022-10-01T23:22:12.342Z,1.92
2022-10-01T23:25:04.120Z,2.72
2022-10-01T23:27:46.251Z,1.95
2022-10-01T23:30:18.056Z,1.83
2022-10-01T23:32:59.318Z,1.67
2022-10-01T23:35:47.587Z,2.10
2022-10-01T23:38:15.117Z,1.50
2022-10-01T23:40:44.989Z,2.63
2022-10-01T23:43:27.821Z,2.10
2022-10-01T23:46:02.395Z,2.20
2022-10-01T23:48:35.736Z,2.92
2022-10-01T23:51:09.303Z,2.08
2022-10-01T23:53:41.396Z,1.90
2022-10-01T23:56:30.227Z,1.80
2022-10-01T23:59:21.407Z,2.08
